Time;durP1;ratioP1;P1;durP2;ratioP2;P2;SDS_P1;SDS_P2;PMS_P1;PMS_P2;Temp;Humidity;BMP_temperature;BMP_pressure;BME280_temperature;BME280_humidity;BME280_pressure;Samples;Min_cycle;Max_cycle;Signal;HPM_P1;HPM_P2
2022/03/08 00:00:38;;;;;;;;;;;;;;;;;;5075992;28;19912;-78
2022/03/08 00:03:04;;;;;;;;;;;;;;;;;;5057800;28;19916;-77
2022/03/08 00:05:30;;;;;;;;;;;;;;;;;;5075803;28;19921;-78
2022/03/08 00:07:56;;;;;;;;;;;;;;;;;;5075727;28;19916;-78
2022/03/08 00:10:21;;;;;;;;;;;;;;;;;;5075607;28;19958;-78
2022/03/08 00:12:47;;;;;;;;;;;;;;;;;;5091081;28;19916;-78
2022/03/08 00:15:14;;;;;;;;;;;;;;;;;;5075703;28;20376;-78
2022/03/08 00:17:40;;;;;;;;;;;;;;;;;;5075574;28;20314;-77
2022/03/08 00:20:09;;;;;;;;;;;;;;;;;;5075420;28;19917;-78
2022/03/08 00:22:35;;;;;;;;;;;;;;;;;;5075457;28;19916;-78
2022/03/08 00:25:01;;;;;;;;;;;;;;;;;;5075435;28;20401;-78
2022/03/08 00:27:27;;;;;;;;;;;;;;;;;;5078557;28;20006;-77
2022/03/08 00:29:52;;;;;;;;;;;;;;;;;;5080491;28;19916;-78
2022/03/08 00:32:18;;;;;;;;;;;;;;;;;;5077635;28;19925;-77
2022/03/08 00:34:44;;;;;;;;;;;;;;;;;;5075421;28;20414;-78
2022/03/08 00:37:09;;;;;;;;;;;;;;;;;;5075232;28;19964;-77
2022/03/08 00:39:35;;;;;;;;;;;;;;;;;;5075132;28;19917;-77
2022/03/08 00:42:00;;;;;;;;;;;;;;;;;;5075002;28;19916;-77
2022/03/08 00:44:26;;;;;;;;;;;;;;;;;;5074989;28;19947;-77
2022/03/08 00:46:51;;;;;;;;;;;;;;;;;;5075069;28;19923;-77
2022/03/08 00:49:16;;;;;;;;;;;;;;;;;;5075036;28;19961;-78
2022/03/08 00:51:42;;;;;;;;;;;;;;;;;;5074980;28;19969;-77
2022/03/08 00:54:07;;;;;;;;;;;;;;;;;;5074823;28;19925;-77
2022/03/08 00:56:33;;;;;;;;;;;;;;;;;;5074591;28;19925;-77
2022/03/08 00:58:58;;;;;;;;;;;;;;;;;;5056902;28;20318;-77
2022/03/08 01:01:23;;;;;;;;;;;;;;;;;;5074658;28;20283;-78
2022/03/08 01:03:49;;;;;;;;;;;;;;;;;;5055667;28;19916;-77
2022/03/08 01:06:14;;;;;;;;;;;;;;;;;;5074530;28;19946;-78
2022/03/08 01:08:40;;;;;;;;;;;;;;;;;;5074564;28;20021;-78
2022/03/08 01:11:05;;;;;;;;;;;;;;;;;;5074431;28;19916;-78
2022/03/08 01:13:31;;;;;;;;;;;;;;;;;;5074204;28;19959;-78
2022/03/08 01:15:56;;;;;;;;;;;;;;;;;;5074322;28;19923;-78
2022/03/08 01:18:21;;;;;;;;;;;;;;;;;;5074182;28;19921;-77
2022/03/08 01:20:47;;;;;;;;;;;;;;;;;;5073968;28;19916;-78
2022/03/08 01:23:12;;;;;;;;;;;;;;;;;;5074222;28;20352;-77
2022/03/08 01:25:40;;;;;;;;;;;;;;;;;;5074180;28;20439;-77
2022/03/08 01:28:06;;;;;;;;;;;;;;;;;;5074071;28;20360;-78
2022/03/08 01:30:32;;;;;;;;;;;;;;;;;;5074498;28;19917;-78
2022/03/08 01:32:58;;;;;;;;;;;;;;;;;;5073808;28;19917;-77
2022/03/08 01:35:24;;;;;;;;;;;;;;;;;;5074278;28;20106;-77
2022/03/08 01:37:49;;;;;;;;;;;;;;;;;;5074039;28;19994;-77
2022/03/08 01:40:15;;;;;;;;;;;;;;;;;;5073906;28;19986;-78
2022/03/08 01:42:48;;;;;;;;;;;;;;;;;;5055861;28;19916;-77
2022/03/08 01:45:15;;;;;;;;;;;;;;;;;;5074016;28;19977;-78
2022/03/08 01:47:41;;;;;;;;;;;;;;;;;;5073827;28;19916;-78
2022/03/08 01:50:06;;;;;;;;;;;;;;;;;;5085210;28;19923;-78
2022/03/08 01:52:32;;;;;;;;;;;;;;;;;;5093840;28;19916;-78
2022/03/08 01:54:58;;;;;;;;;;;;;;;;;;5093992;28;19920;-78
2022/03/08 01:57:25;;;;;;;;;;;;;;;;;;5094133;28;19923;-78
2022/03/08 01:59:51;;;;;;;;;;;;;;;;;;5093947;28;20343;-78
2022/03/08 02:02:16;;;;;;;;;;;;;;;;;;5093819;28;20360;-78
2022/03/08 02:04:42;;;;;;;;;;;;;;;;;;5093923;28;19923;-78
2022/03/08 02:07:07;;;;;;;;;;;;;;;;;;5094221;28;19920;-78
2022/03/08 02:09:33;;;;;;;;;;;;;;;;;;5093988;28;19945;-77
2022/03/08 02:11:59;;;;;;;;;;;;;;;;;;5093847;28;20022;-78
2022/03/08 02:14:26;;;;;;;;;;;;;;;;;;5093237;28;19916;-78
2022/03/08 02:16:51;;;;;;;;;;;;;;;;;;5093753;28;19920;-79
2022/03/08 02:19:17;;;;;;;;;;;;;;;;;;5094035;28;19923;-78
2022/03/08 02:21:42;;;;;;;;;;;;;;;;;;5093715;28;19916;-78
2022/03/08 02:24:08;;;;;;;;;;;;;;;;;;5093631;28;19920;-78
2022/03/08 02:26:33;;;;;;;;;;;;;;;;;;5093720;28;20368;-78
2022/03/08 02:29:00;;;;;;;;;;;;;;;;;;5093652;28;19916;-79
2022/03/08 02:31:25;;;;;;;;;;;;;;;;;;5093746;28;20014;-78
2022/03/08 02:33:51;;;;;;;;;;;;;;;;;;5093416;28;19954;-78
2022/03/08 02:36:16;;;;;;;;;;;;;;;;;;5093477;28;19959;-78
2022/03/08 02:38:42;;;;;;;;;;;;;;;;;;5093643;28;19916;-78
2022/03/08 02:41:07;;;;;;;;;;;;;;;;;;5093726;28;19917;-77
2022/03/08 02:43:33;;;;;;;;;;;;;;;;;;5093539;28;19950;-77
2022/03/08 02:45:58;;;;;;;;;;;;;;;;;;5093553;28;19920;-78
2022/03/08 02:48:27;;;;;;;;;;;;;;;;;;5093407;28;19950;-77
2022/03/08 02:50:53;;;;;;;;;;;;;;;;;;5092213;28;20356;-78
2022/03/08 02:53:19;;;;;;;;;;;;;;;;;;5093322;28;19920;-78
2022/03/08 02:55:44;;;;;;;;;;;;;;;;;;5093160;28;19920;-78
2022/03/08 02:58:10;;;;;;;;;;;;;;;;;;5092070;28;20322;-78
2022/03/08 03:00:35;;;;;;;;;;;;;;;;;;5093342;28;20055;-78
2022/03/08 03:03:01;;;;;;;;;;;;;;;;;;5093343;28;19961;-78
2022/03/08 03:05:27;;;;;;;;;;;;;;;;;;5093320;28;19966;-78
2022/03/08 03:07:53;;;;;;;;;;;;;;;;;;5093318;28;19916;-77
2022/03/08 03:10:19;;;;;;;;;;;;;;;;;;5093270;28;20330;-78
2022/03/08 03:12:45;;;;;;;;;;;;;;;;;;5093193;28;19916;-78
2022/03/08 03:15:12;;;;;;;;;;;;;;;;;;5093177;28;19923;-77
2022/03/08 03:17:37;;;;;;;;;;;;;;;;;;5093232;28;20265;-78
2022/03/08 03:20:05;;;;;;;;;;;;;;;;;;5093182;28;19924;-78
2022/03/08 03:22:30;;;;;;;;;;;;;;;;;;5091841;28;19967;-78
2022/03/08 03:24:56;;;;;;;;;;;;;;;;;;5093174;28;19951;-78
2022/03/08 03:27:21;;;;;;;;;;;;;;;;;;5095000;28;19924;-78
2022/03/08 03:29:47;;;;;;;;;;;;;;;;;;5096785;28;19916;-78
2022/03/08 03:32:13;;;;;;;;;;;;;;;;;;5096543;28;20368;-77
2022/03/08 03:34:38;;;;;;;;;;;;;;;;;;5096483;28;20011;-77
2022/03/08 03:37:04;;;;;;;;;;;;;;;;;;5096574;28;19916;-78
2022/03/08 03:39:29;;;;;;;;;;;;;;;;;;5095245;28;19959;-78
2022/03/08 03:41:54;;;;;;;;;;;;;;;;;;5096519;28;19963;-78
2022/03/08 03:44:20;;;;;;;;;;;;;;;;;;5096300;28;19965;-78
2022/03/08 03:46:45;;;;;;;;;;;;;;;;;;5096700;28;19916;-78
2022/03/08 03:49:11;;;;;;;;;;;;;;;;;;5096341;28;19920;-78
2022/03/08 03:51:36;;;;;;;;;;;;;;;;;;5096376;28;20394;-78
2022/03/08 03:54:02;;;;;;;;;;;;;;;;;;5095988;28;19923;-77
2022/03/08 03:56:27;;;;;;;;;;;;;;;;;;5094761;28;19920;-78
2022/03/08 03:58:52;;;;;;;;;;;;;;;;;;5094880;28;19923;-78
2022/03/08 04:01:18;;;;;;;;;;;;;;;;;;5096173;28;19920;-78
2022/03/08 04:03:43;;;;;;;;;;;;;;;;;;5096063;28;19950;-78
2022/03/08 04:06:09;;;;;;;;;;;;;;;;;;5095965;28;19923;-78
2022/03/08 04:08:34;;;;;;;;;;;;;;;;;;5095913;28;20019;-78
2022/03/08 04:11:00;;;;;;;;;;;;;;;;;;5095905;28;19923;-78
2022/03/08 04:13:25;;;;;;;;;;;;;;;;;;5095812;28;19969;-77
2022/03/08 04:15:52;;;;;;;;;;;;;;;;;;5095936;28;19923;-77
2022/03/08 04:18:18;;;;;;;;;;;;;;;;;;5094462;28;19916;-78
2022/03/08 04:20:43;;;;;;;;;;;;;;;;;;5095755;28;19924;-77
2022/03/08 04:23:09;;;;;;;;;;;;;;;;;;5095893;28;20406;-78
2022/03/08 04:25:34;;;;;;;;;;;;;;;;;;5095734;28;19962;-78
2022/03/08 04:28:01;;;;;;;;;;;;;;;;;;5095587;28;19916;-77
2022/03/08 04:30:27;;;;;;;;;;;;;;;;;;5095631;28;19945;-77
2022/03/08 04:32:52;;;;;;;;;;;;;;;;;;5095814;28;19920;-78
2022/03/08 04:35:18;;;;;;;;;;;;;;;;;;5096118;28;19920;-77
2022/03/08 04:37:44;;;;;;;;;;;;;;;;;;5098443;28;19916;-77
2022/03/08 04:40:10;;;;;;;;;;;;;;;;;;5095317;28;20344;-77
2022/03/08 04:42:35;;;;;;;;;;;;;;;;;;5095445;28;19923;-77
2022/03/08 04:45:01;;;;;;;;;;;;;;;;;;5095311;28;20353;-77
2022/03/08 04:47:26;;;;;;;;;;;;;;;;;;5095470;28;20287;-77
2022/03/08 04:49:52;;;;;;;;;;;;;;;;;;5091041;28;19946;-77
2022/03/08 04:52:17;;;;;;;;;;;;;;;;;;5091999;28;19912;-77
2022/03/08 04:54:42;;;;;;;;;;;;;;;;;;5094669;28;19920;-77
2022/03/08 04:57:08;;;;;;;;;;;;;;;;;;5095078;28;19920;-78
2022/03/08 04:59:33;;;;;;;;;;;;;;;;;;5084517;28;19917;-77
2022/03/08 05:01:59;;;;;;;;;;;;;;;;;;5074684;28;20257;-79
2022/03/08 05:04:24;;;;;;;;;;;;;;;;;;5083470;28;19967;-77
2022/03/08 05:06:50;;;;;;;;;;;;;;;;;;5095099;28;19916;-78
2022/03/08 05:09:16;;;;;;;;;;;;;;;;;;5095018;28;19927;-78
2022/03/08 05:11:42;;;;;;;;;;;;;;;;;;5094850;28;19950;-78
2022/03/08 05:14:07;;;;;;;;;;;;;;;;;;5094489;28;19960;-78
2022/03/08 05:16:33;;;;;;;;;;;;;;;;;;5094682;28;19982;-77
2022/03/08 05:18:58;;;;;;;;;;;;;;;;;;5094759;28;19920;-77
2022/03/08 05:21:24;;;;;;;;;;;;;;;;;;5095251;28;19923;-77
2022/03/08 05:23:49;;;;;;;;;;;;;;;;;;5094544;28;19924;-77
2022/03/08 05:26:14;;;;;;;;;;;;;;;;;;5094693;28;19922;-77
2022/03/08 05:28:42;;;;;;;;;;;;;;;;;;5094991;28;19955;-77
2022/03/08 05:31:08;;;;;;;;;;;;;;;;;;5093563;28;19920;-77
2022/03/08 05:33:34;;;;;;;;;;;;;;;;;;5094286;28;19923;-77
2022/03/08 05:35:59;;;;;;;;;;;;;;;;;;5076259;28;19938;-78
2022/03/08 05:38:25;;;;;;;;;;;;;;;;;;5094497;28;20390;-78
2022/03/08 05:40:50;;;;;;;;;;;;;;;;;;5094437;28;19916;-77
2022/03/08 05:43:16;;;;;;;;;;;;;;;;;;5094533;28;19916;-77
2022/03/08 05:45:41;;;;;;;;;;;;;;;;;;5094418;28;19916;-78
2022/03/08 05:48:06;;;;;;;;;;;;;;;;;;5076185;28;19917;-78
2022/03/08 05:50:32;;;;;;;;;;;;;;;;;;5094017;28;20387;-77
2022/03/08 05:52:57;;;;;;;;;;;;;;;;;;5094453;28;19923;-77
2022/03/08 05:55:23;;;;;;;;;;;;;;;;;;5094056;28;20353;-77
2022/03/08 05:57:48;;;;;;;;;;;;;;;;;;5094328;28;19919;-78
2022/03/08 06:00:14;;;;;;;;;;;;;;;;;;5085299;28;20011;-77
2022/03/08 06:02:40;;;;;;;;;;;;;;;;;;5094336;28;20274;-77
2022/03/08 06:05:05;;;;;;;;;;;;;;;;;;5094198;28;19992;-78
2022/03/08 06:07:31;;;;;;;;;;;;;;;;;;5094134;28;19916;-78
2022/03/08 06:09:56;;;;;;;;;;;;;;;;;;5092877;28;19960;-78
2022/03/08 06:12:21;;;;;;;;;;;;;;;;;;5093904;28;19927;-79
2022/03/08 06:14:47;;;;;;;;;;;;;;;;;;5093886;28;19959;-78
2022/03/08 06:17:12;;;;;;;;;;;;;;;;;;5094237;28;20003;-78
2022/03/08 06:19:38;;;;;;;;;;;;;;;;;;5094109;28;20409;-79
2022/03/08 06:22:03;;;;;;;;;;;;;;;;;;5093894;28;20260;-78
2022/03/08 06:24:29;;;;;;;;;;;;;;;;;;5093899;28;19923;-78
2022/03/08 06:26:54;;;;;;;;;;;;;;;;;;5093793;28;20352;-78
2022/03/08 06:29:20;;;;;;;;;;;;;;;;;;5093753;28;19916;-78
2022/03/08 06:31:45;;;;;;;;;;;;;;;;;;5093721;28;19923;-78
2022/03/08 06:34:10;;;;;;;;;;;;;;;;;;5093620;28;19919;-78
2022/03/08 06:36:36;;;;;;;;;;;;;;;;;;5092455;28;19963;-78
2022/03/08 06:39:02;;;;;;;;;;;;;;;;;;5093894;28;19912;-78
2022/03/08 06:41:28;;;;;;;;;;;;;;;;;;5093993;28;20310;-78
2022/03/08 06:43:53;;;;;;;;;;;;;;;;;;5093798;28;19917;-78
2022/03/08 06:46:19;;;;;;;;;;;;;;;;;;5092360;28;19912;-78
2022/03/08 06:48:44;;;;;;;;;;;;;;;;;;5094082;28;20019;-78
2022/03/08 06:51:09;;;;;;;;;;;;;;;;;;5093756;28;20352;-79
2022/03/08 06:53:35;;;;;;;;;;;;;;;;;;5093646;28;19923;-78
2022/03/08 06:56:00;;;;;;;;;;;;;;;;;;5093160;28;19927;-78
2022/03/08 06:58:26;;;;;;;;;;;;;;;;;;5093450;28;20468;-79
2022/03/08 07:00:52;;;;;;;;;;;;;;;;;;5094318;28;20383;-79
2022/03/08 07:03:17;;;;;;;;;;;;;;;;;;5097342;28;20057;-79
2022/03/08 07:05:43;;;;;;;;;;;;;;;;;;5097236;28;19963;-78
2022/03/08 07:08:09;;;;;;;;;;;;;;;;;;5096028;28;19927;-77
2022/03/08 07:10:35;;;;;;;;;;;;;;;;;;5097242;28;20334;-77
2022/03/08 07:13:01;;;;;;;;;;;;;;;;;;5097097;28;20367;-79
2022/03/08 07:15:26;;;;;;;;;;;;;;;;;;5096979;28;19916;-79
2022/03/08 07:17:52;;;;;;;;;;;;;;;;;;5096945;28;20006;-79
2022/03/08 07:20:17;;;;;;;;;;;;;;;;;;5096853;28;20295;-78
2022/03/08 07:22:42;;;;;;;;;;;;;;;;;;5096789;28;19974;-80
2022/03/08 07:25:09;;;;;;;;;;;;;;;;;;5096976;28;19927;-78
2022/03/08 07:27:34;;;;;;;;;;;;;;;;;;5096904;28;19916;-79
2022/03/08 07:30:00;;;;;;;;;;;;;;;;;;5097021;28;19999;-77
2022/03/08 07:32:25;;;;;;;;;;;;;;;;;;5096788;28;19916;-78
2022/03/08 07:34:51;;;;;;;;;;;;;;;;;;5097016;28;19945;-78
2022/03/08 07:37:16;;;;;;;;;;;;;;;;;;5096575;28;19941;-77
2022/03/08 07:39:41;;;;;;;;;;;;;;;;;;5096738;28;19916;-78
2022/03/08 07:42:07;;;;;;;;;;;;;;;;;;5096517;28;20375;-79
2022/03/08 07:44:32;;;;;;;;;;;;;;;;;;5096561;28;20041;-78
2022/03/08 07:46:59;;;;;;;;;;;;;;;;;;5096553;28;19955;-78
2022/03/08 07:49:25;;;;;;;;;;;;;;;;;;5078288;28;19923;-78
2022/03/08 07:51:51;;;;;;;;;;;;;;;;;;5096522;28;19916;-78
2022/03/08 07:54:17;;;;;;;;;;;;;;;;;;5096251;28;19923;-78
2022/03/08 07:56:42;;;;;;;;;;;;;;;;;;5095982;28;19920;-79
2022/03/08 07:59:08;;;;;;;;;;;;;;;;;;5096270;28;19968;-78
2022/03/08 08:01:33;;;;;;;;;;;;;;;;;;5096129;28;20326;-78
2022/03/08 08:03:58;;;;;;;;;;;;;;;;;;5096134;28;20283;-77
2022/03/08 08:06:24;;;;;;;;;;;;;;;;;;5096046;28;20317;-77
2022/03/08 08:08:49;;;;;;;;;;;;;;;;;;5095985;28;19920;-78
2022/03/08 08:11:15;;;;;;;;;;;;;;;;;;5096058;28;19916;-80
2022/03/08 08:13:40;;;;;;;;;;;;;;;;;;5095598;28;19916;-78
2022/03/08 08:16:05;;;;;;;;;;;;;;;;;;5095690;28;19962;-78
2022/03/08 08:18:31;;;;;;;;;;;;;;;;;;5095894;28;19959;-78
2022/03/08 08:20:56;;;;;;;;;;;;;;;;;;5095748;28;19961;-78
2022/03/08 08:23:23;;;;;;;;;;;;;;;;;;5095887;28;19947;-77
2022/03/08 08:25:49;;;;;;;;;;;;;;;;;;5095840;28;19920;-79
2022/03/08 08:28:14;;;;;;;;;;;;;;;;;;5095612;28;19923;-77
2022/03/08 08:30:39;;;;;;;;;;;;;;;;;;5095628;28;19968;-79
2022/03/08 08:33:05;;;;;;;;;;;;;;;;;;5095559;28;19923;-78
2022/03/08 08:35:30;;;;;;;;;;;;;;;;;;5095843;28;19923;-78
2022/03/08 08:37:56;;;;;;;;;;;;;;;;;;5095350;28;19916;-79
2022/03/08 08:40:21;;;;;;;;;;;;;;;;;;5095374;28;19926;-78
2022/03/08 08:42:46;;;;;;;;;;;;;;;;;;5095320;28;19916;-78
2022/03/08 08:45:13;;;;;;;;;;;;;;;;;;5095367;28;19916;-78
2022/03/08 08:47:38;;;;;;;;;;;;;;;;;;5077065;28;19924;-78
2022/03/08 08:50:04;;;;;;;;;;;;;;;;;;5095195;28;19916;-78
2022/03/08 08:52:30;;;;;;;;;;;;;;;;;;5095188;28;19916;-78
2022/03/08 08:54:55;;;;;;;;;;;;;;;;;;5095121;28;20414;-78
2022/03/08 08:57:20;;;;;;;;;;;;;;;;;;5095230;28;19920;-78
2022/03/08 08:59:46;;;;;;;;;;;;;;;;;;5095140;28;19920;-78
2022/03/08 09:02:11;;;;;;;;;;;;;;;;;;5095146;28;20364;-78
2022/03/08 09:04:37;;;;;;;;;;;;;;;;;;5095146;28;19920;-78
2022/03/08 09:07:02;;;;;;;;;;;;;;;;;;5095066;28;19916;-79
2022/03/08 09:09:28;;;;;;;;;;;;;;;;;;5095098;28;19920;-77
2022/03/08 09:11:53;;;;;;;;;;;;;;;;;;5095075;28;19925;-78
2022/03/08 09:14:19;;;;;;;;;;;;;;;;;;5095146;28;20023;-78
2022/03/08 09:16:44;;;;;;;;;;;;;;;;;;5094851;28;20474;-78
2022/03/08 09:19:10;;;;;;;;;;;;;;;;;;5094912;28;20014;-77
2022/03/08 09:21:36;;;;;;;;;;;;;;;;;;5094773;28;19938;-77
2022/03/08 09:24:01;;;;;;;;;;;;;;;;;;5094204;28;19966;-78
2022/03/08 09:26:27;;;;;;;;;;;;;;;;;;5094505;28;20291;-78
2022/03/08 09:28:52;;;;;;;;;;;;;;;;;;5076461;28;20452;-78
2022/03/08 09:31:18;;;;;;;;;;;;;;;;;;5094751;28;19920;-77
2022/03/08 09:33:44;;;;;;;;;;;;;;;;;;5094622;28;20379;-77
2022/03/08 09:36:10;;;;;;;;;;;;;;;;;;5094627;28;20011;-78
2022/03/08 09:38:37;;;;;;;;;;;;;;;;;;5076320;28;19959;-78
2022/03/08 09:41:03;;;;;;;;;;;;;;;;;;5094564;28;20018;-78
2022/03/08 09:43:29;;;;;;;;;;;;;;;;;;5094688;28;19978;-79
2022/03/08 09:45:55;;;;;;;;;;;;;;;;;;5094434;28;19922;-78
2022/03/08 09:48:20;;;;;;;;;;;;;;;;;;5094392;28;19916;-78
2022/03/08 09:50:46;;;;;;;;;;;;;;;;;;5094438;28;20007;-78
2022/03/08 09:53:12;;;;;;;;;;;;;;;;;;5094327;28;19916;-78
2022/03/08 09:55:37;;;;;;;;;;;;;;;;;;5094138;28;19924;-78
2022/03/08 09:58:04;;;;;;;;;;;;;;;;;;5094128;28;19916;-79
2022/03/08 10:00:31;;;;;;;;;;;;;;;;;;5093883;28;19912;-79
2022/03/08 10:02:57;;;;;;;;;;;;;;;;;;5094487;28;19962;-77
2022/03/08 10:05:23;;;;;;;;;;;;;;;;;;5094183;28;19916;-77
2022/03/08 10:08:10;;;;;;;;;;;;;;;;;;5094282;28;19919;-79
2022/03/08 10:10:52;;;;;;;;;;;;;;;;;;5094163;28;19942;-78
2022/03/08 10:13:18;;;;;;;;;;;;;;;;;;5093955;28;20375;-78
2022/03/08 10:15:44;;;;;;;;;;;;;;;;;;5093971;28;20010;-78
2022/03/08 10:18:10;;;;;;;;;;;;;;;;;;5093643;28;19956;-79
2022/03/08 10:20:35;;;;;;;;;;;;;;;;;;5093869;28;19916;-79
2022/03/08 10:23:02;;;;;;;;;;;;;;;;;;5093756;28;19948;-79
2022/03/08 10:25:29;;;;;;;;;;;;;;;;;;5093847;28;19924;-79
2022/03/08 10:27:55;;;;;;;;;;;;;;;;;;5093829;28;20400;-77
2022/03/08 10:30:24;;;;;;;;;;;;;;;;;;5093728;28;20003;-77
2022/03/08 10:32:52;;;;;;;;;;;;;;;;;;5093731;28;19939;-77
2022/03/08 10:35:27;;;;;;;;;;;;;;;;;;5093743;28;19916;-78
2022/03/08 10:37:57;;;;;;;;;;;;;;;;;;5097715;28;20290;-78
2022/03/08 10:40:30;;;;;;;;;;;;;;;;;;5097692;28;19920;-79
2022/03/08 10:43:03;;;;;;;;;;;;;;;;;;5097936;28;19922;-80
2022/03/08 10:45:29;;;;;;;;;;;;;;;;;;5096905;28;20393;-79
2022/03/08 10:47:55;;;;;;;;;;;;;;;;;;5097597;28;20008;-78
2022/03/08 10:50:23;;;;;;;;;;;;;;;;;;5097579;28;19955;-78
2022/03/08 10:52:50;;;;;;;;;;;;;;;;;;5097531;28;19927;-79
2022/03/08 10:55:16;;;;;;;;;;;;;;;;;;5097484;28;20376;-77
2022/03/08 10:57:42;;;;;;;;;;;;;;;;;;5097627;28;19922;-77
2022/03/08 11:00:11;;;;;;;;;;;;;;;;;;5097739;28;20392;-80
2022/03/08 11:02:46;;;;;;;;;;;;;;;;;;5097672;28;19951;-78
2022/03/08 11:05:11;;;;;;;;;;;;;;;;;;5097500;28;19916;-77
2022/03/08 11:07:38;;;;;;;;;;;;;;;;;;5096444;28;19977;-77
2022/03/08 11:10:04;;;;;;;;;;;;;;;;;;5097271;28;20384;-79
2022/03/08 11:12:29;;;;;;;;;;;;;;;;;;5096013;28;19912;-78
2022/03/08 11:14:55;;;;;;;;;;;;;;;;;;5096752;28;20032;-78
2022/03/08 11:17:21;;;;;;;;;;;;;;;;;;5097251;28;19917;-77
2022/03/08 11:19:48;;;;;;;;;;;;;;;;;;5096811;28;19947;-78
2022/03/08 11:22:15;;;;;;;;;;;;;;;;;;5097001;28;19916;-78
2022/03/08 11:24:41;;;;;;;;;;;;;;;;;;5097309;28;20286;-77
2022/03/08 11:27:07;;;;;;;;;;;;;;;;;;5097458;28;20316;-78
2022/03/08 11:29:33;;;;;;;;;;;;;;;;;;5096251;28;19962;-77
2022/03/08 11:32:00;;;;;;;;;;;;;;;;;;5097090;28;19959;-78
2022/03/08 11:34:51;;;;;;;;;;;;;;;;;;5096802;28;19916;-77
2022/03/08 11:37:21;;;;;;;;;;;;;;;;;;5080706;28;20360;-78
2022/03/08 11:40:06;;;;;;;;;;;;;;;;;;5096803;28;19970;-78
2022/03/08 11:42:32;;;;;;;;;;;;;;;;;;5096526;28;19922;-79
2022/03/08 11:45:11;;;;;;;;;;;;;;;;;;5096574;28;19916;-78
2022/03/08 11:47:53;;;;;;;;;;;;;;;;;;5095576;28;20014;-78
2022/03/08 11:50:18;;;;;;;;;;;;;;;;;;5096394;28;19916;-79
2022/03/08 11:52:44;;;;;;;;;;;;;;;;;;5096744;28;20010;-78
2022/03/08 11:55:11;;;;;;;;;;;;;;;;;;5096216;28;19920;-79
2022/03/08 11:57:54;;;;;;;;;;;;;;;;;;5096364;28;19920;-79
2022/03/08 12:00:34;;;;;;;;;;;;;;;;;;5095739;28;19920;-79
2022/03/08 12:03:18;;;;;;;;;;;;;;;;;;5096088;28;19981;-77
2022/03/08 12:05:59;;;;;;;;;;;;;;;;;;5094874;28;20364;-79
2022/03/08 12:08:24;;;;;;;;;;;;;;;;;;5096049;28;19927;-78
2022/03/08 12:10:57;;;;;;;;;;;;;;;;;;5094811;28;19916;-79
2022/03/08 12:13:23;;;;;;;;;;;;;;;;;;5096152;28;20403;-78
2022/03/08 12:16:10;;;;;;;;;;;;;;;;;;5095941;28;19927;-78
2022/03/08 12:18:36;;;;;;;;;;;;;;;;;;5095770;28;19916;-78
2022/03/08 12:21:17;;;;;;;;;;;;;;;;;;5095584;28;20295;-79
2022/03/08 12:23:48;;;;;;;;;;;;;;;;;;5095797;28;19923;-78
2022/03/08 12:26:31;;;;;;;;;;;;;;;;;;5095680;28;19916;-78
2022/03/08 12:29:14;;;;;;;;;;;;;;;;;;5095863;28;19916;-78
2022/03/08 12:31:58;;;;;;;;;;;;;;;;;;5095730;28;19941;-78
2022/03/08 12:34:32;;;;;;;;;;;;;;;;;;5095546;28;19928;-78
2022/03/08 12:37:21;;;;;;;;;;;;;;;;;;5095714;28;19916;-78
2022/03/08 12:39:47;;;;;;;;;;;;;;;;;;5075829;28;19916;-77
2022/03/08 12:42:16;;;;;;;;;;;;;;;;;;5095275;28;19923;-77
2022/03/08 12:44:48;;;;;;;;;;;;;;;;;;5095918;28;20352;-77
2022/03/08 12:47:15;;;;;;;;;;;;;;;;;;5095822;28;19919;-77
2022/03/08 12:49:42;;;;;;;;;;;;;;;;;;5095646;28;19942;-77
2022/03/08 12:52:08;;;;;;;;;;;;;;;;;;5095453;28;19919;-77
2022/03/08 12:54:35;;;;;;;;;;;;;;;;;;5093988;28;19927;-77
2022/03/08 12:57:00;;;;;;;;;;;;;;;;;;5095425;28;20371;-78
2022/03/08 12:59:26;;;;;;;;;;;;;;;;;;5094055;28;19923;-78
2022/03/08 13:01:51;;;;;;;;;;;;;;;;;;5094666;28;19916;-77
2022/03/08 13:04:23;;;;;;;;;;;;;;;;;;5094932;28;19916;-77
2022/03/08 13:07:10;;;;;;;;;;;;;;;;;;5093089;28;20137;-78
2022/03/08 13:10:08;;;;;;;;;;;;;;;;;;5094996;28;19969;-78
2022/03/08 13:12:33;;;;;;;;;;;;;;;;;;5071773;28;19923;-78
2022/03/08 13:15:15;;;;;;;;;;;;;;;;;;5094827;28;19920;-78
2022/03/08 13:17:45;;;;;;;;;;;;;;;;;;5095055;28;19922;-78
2022/03/08 13:20:29;;;;;;;;;;;;;;;;;;5093192;28;20006;-79
2022/03/08 13:22:58;;;;;;;;;;;;;;;;;;5094248;28;19983;-79
2022/03/08 13:25:24;;;;;;;;;;;;;;;;;;5094654;28;19923;-79
2022/03/08 13:27:53;;;;;;;;;;;;;;;;;;5093301;28;19913;-79
2022/03/08 13:30:20;;;;;;;;;;;;;;;;;;5094489;28;19920;-78
2022/03/08 13:32:46;;;;;;;;;;;;;;;;;;5094491;28;19923;-78
2022/03/08 13:35:11;;;;;;;;;;;;;;;;;;5094470;28;19916;-78
2022/03/08 13:37:49;;;;;;;;;;;;;;;;;;5094387;28;19920;-78
2022/03/08 13:40:28;;;;;;;;;;;;;;;;;;5094195;28;20364;-78
2022/03/08 13:42:55;;;;;;;;;;;;;;;;;;5093910;28;20337;-78
2022/03/08 13:45:21;;;;;;;;;;;;;;;;;;5094413;28;19916;-79
2022/03/08 13:47:51;;;;;;;;;;;;;;;;;;5094284;28;19916;-79
2022/03/08 13:50:17;;;;;;;;;;;;;;;;;;5094146;28;20014;-78
2022/03/08 13:52:56;;;;;;;;;;;;;;;;;;5094145;28;19959;-78
2022/03/08 13:55:28;;;;;;;;;;;;;;;;;;5094033;28;19920;-79
2022/03/08 13:57:57;;;;;;;;;;;;;;;;;;5094163;28;19921;-78
2022/03/08 14:00:27;;;;;;;;;;;;;;;;;;5092691;28;19927;-78
2022/03/08 14:02:54;;;;;;;;;;;;;;;;;;5093717;28;19916;-78
2022/03/08 14:05:20;;;;;;;;;;;;;;;;;;5093796;28;19916;-79
2022/03/08 14:07:53;;;;;;;;;;;;;;;;;;5092878;28;19977;-78
2022/03/08 14:10:20;;;;;;;;;;;;;;;;;;5093554;28;20307;-78
2022/03/08 14:12:46;;;;;;;;;;;;;;;;;;5094040;28;19916;-77
2022/03/08 14:15:11;;;;;;;;;;;;;;;;;;5093882;28;20269;-76
2022/03/08 14:17:37;;;;;;;;;;;;;;;;;;5084705;28;19920;-77
2022/03/08 14:20:32;;;;;;;;;;;;;;;;;;5074114;28;19928;-80
2022/03/08 14:23:01;;;;;;;;;;;;;;;;;;5074946;28;19969;-78
2022/03/08 14:25:26;;;;;;;;;;;;;;;;;;5093774;28;19916;-79
2022/03/08 14:27:52;;;;;;;;;;;;;;;;;;5093753;28;20306;-78
2022/03/08 14:30:24;;;;;;;;;;;;;;;;;;5093766;28;20389;-78
2022/03/08 14:32:51;;;;;;;;;;;;;;;;;;5093688;28;20347;-79
2022/03/08 14:35:17;;;;;;;;;;;;;;;;;;5083124;28;19916;-78
2022/03/08 14:37:43;;;;;;;;;;;;;;;;;;5073662;28;19920;-78
2022/03/08 14:40:08;;;;;;;;;;;;;;;;;;5062489;28;20302;-79
2022/03/08 14:42:35;;;;;;;;;;;;;;;;;;5093162;28;19970;-78
2022/03/08 14:45:00;;;;;;;;;;;;;;;;;;5092799;28;19927;-79
2022/03/08 14:47:28;;;;;;;;;;;;;;;;;;5084016;28;20694;-79
2022/03/08 14:49:54;;;;;;;;;;;;;;;;;;5083235;28;19927;-77
2022/03/08 14:52:24;;;;;;;;;;;;;;;;;;5082021;28;20383;-79
2022/03/08 14:54:50;;;;;;;;;;;;;;;;;;5079118;28;20338;-77
2022/03/08 14:57:15;;;;;;;;;;;;;;;;;;5088410;28;19968;-78
2022/03/08 14:59:41;;;;;;;;;;;;;;;;;;5086947;28;20014;-79
2022/03/08 15:02:07;;;;;;;;;;;;;;;;;;5081907;28;19920;-77
2022/03/08 15:04:32;;;;;;;;;;;;;;;;;;5093349;28;20294;-77
2022/03/08 15:06:58;;;;;;;;;;;;;;;;;;5075253;28;20031;-78
2022/03/08 15:09:23;;;;;;;;;;;;;;;;;;5075542;28;19924;-78
2022/03/08 15:11:49;;;;;;;;;;;;;;;;;;5073154;28;19920;-77
2022/03/08 15:14:14;;;;;;;;;;;;;;;;;;5073091;28;20008;-78
2022/03/08 15:16:40;;;;;;;;;;;;;;;;;;5073080;28;19999;-78
2022/03/08 15:19:06;;;;;;;;;;;;;;;;;;5073052;28;20386;-78
2022/03/08 15:21:31;;;;;;;;;;;;;;;;;;5073439;28;19990;-78
2022/03/08 15:23:57;;;;;;;;;;;;;;;;;;5076231;28;19916;-77
2022/03/08 15:26:24;;;;;;;;;;;;;;;;;;5094316;28;19927;-78
2022/03/08 15:28:50;;;;;;;;;;;;;;;;;;5088074;28;19929;-79
2022/03/08 15:31:16;;;;;;;;;;;;;;;;;;5088924;28;19943;-78
2022/03/08 15:33:42;;;;;;;;;;;;;;;;;;5088750;28;20360;-78
2022/03/08 15:36:09;;;;;;;;;;;;;;;;;;5085553;28;19928;-78
2022/03/08 15:38:34;;;;;;;;;;;;;;;;;;5084423;28;19952;-80
2022/03/08 15:40:59;;;;;;;;;;;;;;;;;;5081950;28;19967;-79
2022/03/08 15:43:25;;;;;;;;;;;;;;;;;;5079943;28;19946;-77
2022/03/08 15:45:51;;;;;;;;;;;;;;;;;;5083766;28;19927;-77
2022/03/08 15:48:17;;;;;;;;;;;;;;;;;;5085030;28;19927;-78
2022/03/08 15:50:42;;;;;;;;;;;;;;;;;;5063920;28;19924;-77
2022/03/08 15:53:08;;;;;;;;;;;;;;;;;;5088369;28;19920;-79
2022/03/08 15:55:33;;;;;;;;;;;;;;;;;;5083059;28;19942;-79
2022/03/08 15:57:59;;;;;;;;;;;;;;;;;;5083369;28;20007;-79
2022/03/08 16:00:26;;;;;;;;;;;;;;;;;;5082725;28;20010;-78
2022/03/08 16:02:51;;;;;;;;;;;;;;;;;;5079773;28;19928;-78
2022/03/08 16:05:17;;;;;;;;;;;;;;;;;;5088781;28;19920;-77
2022/03/08 16:07:43;;;;;;;;;;;;;;;;;;5082489;28;19938;-77
2022/03/08 16:10:09;;;;;;;;;;;;;;;;;;5082160;28;19928;-78
2022/03/08 16:12:34;;;;;;;;;;;;;;;;;;5082456;28;19924;-78
2022/03/08 16:14:59;;;;;;;;;;;;;;;;;;5083416;28;19921;-78
2022/03/08 16:17:25;;;;;;;;;;;;;;;;;;5084563;28;19959;-78
2022/03/08 16:19:51;;;;;;;;;;;;;;;;;;5075635;28;19917;-78
2022/03/08 16:22:16;;;;;;;;;;;;;;;;;;5075254;28;19951;-78
2022/03/08 16:24:42;;;;;;;;;;;;;;;;;;5075293;28;19917;-78
2022/03/08 16:27:08;;;;;;;;;;;;;;;;;;5057491;28;20360;-78
2022/03/08 16:29:33;;;;;;;;;;;;;;;;;;5076186;28;19981;-78
2022/03/08 16:31:59;;;;;;;;;;;;;;;;;;5066499;28;19999;-76
2022/03/08 16:34:24;;;;;;;;;;;;;;;;;;5079817;28;20315;-80
2022/03/08 16:36:51;;;;;;;;;;;;;;;;;;5070755;28;19916;-76
2022/03/08 16:39:16;;;;;;;;;;;;;;;;;;5069202;28;20262;-76
2022/03/08 16:41:51;;;;;;;;;;;;;;;;;;5092054;28;19924;-77
2022/03/08 16:44:17;;;;;;;;;;;;;;;;;;5082634;28;19920;-78